Pagina principale
METAR-TAF:

METAR-TAF

Aeroporti :

Aeroporto di Bologna-Borgo Panigale

Bologna, Italia

latitudine: 44-32N, longitudine: 011-18E, altezza: 36 m

Osservazione

Il bollettino è stato emesso 21 minuti fa, alle 19:20 UTC
Vento 4 kt da est
Temperature 10°C
Umidità 100%
Pressione 1019 hPa
Visibilità: 8000 m

METAR: LIPE 201920Z 10004KT 8000 NSC 10/10 Q1019

Ora: 20:41 (19:41 UTC)

Previsione

Il bollettino è stato emesso 2 ore e 41 minuti fa, alle 17:00 UTC
Previsione valida dal 20 alle 18 UTC al 21 alle 18 UTC
Vento 5 kt da direzioni variabili
Visibilità 10 km o più
Nuvoloso ad un'altezza di 1000 ft
Temporaneamente
dal 21 alle 00 UTC al 21 alle 07 UTC
Visibilità: 3000 m
foschia

TAF: LIPE 201700Z 2018/2118 VRB05KT 9999 BKN010 TEMPO 2100/2107 3000 BR

Osservazioni e previsioni meteorologiche di più di 4000 aeroporti (messaggi METAR e TAF).

Le stazioni disponibili sono rappresentate dai dischi gialli e rossi sulla carta.

Puntare il mouse per vedere il nome della stazione.

Clicca sopra per visualizzare le osservazioni e previsioni meteorologiche.

Per cambiare la mappa : fare clic sui pulsanti verdi con una croce nera per ingrandire, il pulsante verde con un trattino per diminuire, o sulla freccia verde per le mappe adiacenti.


METAR-TAF: